Time;durP1;ratioP1;P1;durP2;ratioP2;P2;SDS_P1;SDS_P2;PMS_P1;PMS_P2;Temp;Humidity;BMP_temperature;BMP_pressure;BME280_temperature;BME280_humidity;BME280_pressure;Samples;Min_cycle;Max_cycle;Signal;HPM_P1;HPM_P2
2022/03/22 00:00:40;;;;;;;6.47;1.98;;;22.70;99.90;;;;;;5091465;28;20380;-86
2022/03/22 00:03:07;;;;;;;6.63;1.92;;;22.70;99.90;;;;;;5072937;28;20380;-85
2022/03/22 00:05:37;;;;;;;8.23;1.93;;;22.70;99.90;;;;;;5090923;28;20379;-86
2022/03/22 00:08:05;;;;;;;3.90;1.90;;;22.70;99.90;;;;;;5087350;28;20430;-85
2022/03/22 00:10:33;;;;;;;6.93;2.10;;;23.00;99.90;;;;;;5070927;28;20396;-88
2022/03/22 00:12:59;;;;;;;7.25;2.10;;;23.10;99.90;;;;;;5070951;28;20366;-87
2022/03/22 00:15:27;;;;;;;6.78;1.95;;;23.00;99.90;;;;;;5073274;28;20489;-86
2022/03/22 00:17:54;;;;;;;6.90;1.90;;;22.90;99.90;;;;;;5072007;28;20960;-86
2022/03/22 00:20:20;;;;;;;8.70;1.95;;;23.00;99.90;;;;;;5070405;28;20460;-86
2022/03/22 00:22:48;;;;;;;9.77;2.03;;;23.00;99.90;;;;;;5070587;28;20393;-88
2022/03/22 00:25:16;;;;;;;6.20;2.20;;;23.20;99.90;;;;;;5052640;28;20382;-89
2022/03/22 00:27:55;;;;;;;6.55;2.35;;;23.50;99.90;;;;;;5070327;28;20385;-88
2022/03/22 00:30:26;;;;;;;6.63;2.40;;;23.50;99.90;;;;;;5071410;28;20459;-87
2022/03/22 00:32:56;;;;;;;6.53;2.38;;;23.50;99.90;;;;;;5074396;28;20377;-88
2022/03/22 00:35:24;;;;;;;6.25;2.55;;;23.40;99.90;;;;;;5075185;28;20382;-87
2022/03/22 00:37:53;;;;;;;5.38;2.35;;;23.60;99.90;;;;;;5074934;28;20370;-89
2022/03/22 00:40:22;;;;;;;8.82;2.80;;;23.60;99.90;;;;;;5057323;28;20467;-90
2022/03/22 00:42:52;;;;;;;5.70;2.57;;;23.80;99.90;;;;;;5059927;28;20377;-89
2022/03/22 00:45:21;;;;;;;6.57;2.70;;;24.00;99.90;;;;;;5095112;28;20383;-89
2022/03/22 00:47:51;;;;;;;7.53;2.92;;;24.10;99.90;;;;;;5094440;28;20389;-91
2022/03/22 00:50:21;;;;;;;188.27;22.47;;;24.20;99.90;;;;;;5095287;28;20376;-86
2022/03/22 00:52:48;;;;;;;9.15;2.92;;;24.40;99.90;;;;;;5093131;28;20380;-89
2022/03/22 00:55:15;;;;;;;9.88;2.70;;;24.90;99.90;;;;;;5094776;28;20377;-86
2022/03/22 00:57:44;;;;;;;7.27;2.40;;;25.40;99.90;;;;;;5095181;28;20376;-87
2022/03/22 01:00:13;;;;;;;5.88;2.30;;;25.60;99.90;;;;;;5096750;28;20391;-86
2022/03/22 01:02:43;;;;;;;7.85;2.50;;;25.80;99.90;;;;;;5095578;28;20421;-87
2022/03/22 01:05:13;;;;;;;6.27;2.43;;;25.80;99.80;;;;;;5074790;28;20390;-81
2022/03/22 01:07:45;;;;;;;5.30;2.10;;;26.00;98.90;;;;;;5072068;28;20397;-87
2022/03/22 01:10:14;;;;;;;5.75;2.30;;;27.30;98.40;;;;;;5072598;28;20394;-87
2022/03/22 01:12:42;;;;;;;7.15;2.40;;;26.20;98.90;;;;;;5072151;28;20370;-82
2022/03/22 01:15:13;;;;;;;9.65;2.47;;;26.40;96.30;;;;;;5072086;28;20390;-85
2022/03/22 01:17:40;;;;;;;6.13;2.40;;;26.40;96.90;;;;;;5079586;28;20377;-85
2022/03/22 01:20:09;;;;;;;6.28;2.20;;;26.60;96.20;;;;;;5089641;28;20475;-83
2022/03/22 01:22:38;;;;;;;4.80;2.50;;;26.60;96.20;;;;;;5054518;28;20400;-80
2022/03/22 01:25:13;;;;;;;5.10;2.53;;;26.90;95.00;;;;;;5072427;28;20474;-85
2022/03/22 01:27:42;;;;;;;6.97;2.70;;;27.10;94.20;;;;;;5071417;28;20369;-89
2022/03/22 01:30:14;;;;;;;5.35;2.28;;;27.30;93.30;;;;;;5072016;28;20477;-86
2022/03/22 01:32:42;;;;;;;6.20;2.50;;;27.50;91.30;;;;;;5072337;28;20753;-87
2022/03/22 01:35:10;;;;;;;6.18;2.80;;;27.50;92.30;;;;;;5070972;28;20443;-90
2022/03/22 01:37:38;;;;;;;5.97;2.60;;;27.70;91.10;;;;;;5072271;28;20457;-87
2022/03/22 01:40:07;;;;;;;6.85;2.90;;;28.20;90.60;;;;;;5072415;28;20386;-89
2022/03/22 01:42:38;;;;;;;6.95;2.70;;;29.00;85.10;;;;;;5071569;28;20938;-88
2022/03/22 01:45:07;;;;;;;8.30;3.07;;;28.90;82.80;;;;;;5071985;28;20409;-87
2022/03/22 01:47:36;;;;;;;6.20;3.10;;;28.90;81.30;;;;;;5078149;28;20467;-81
2022/03/22 01:50:05;;;;;;;4.50;2.50;;;29.00;79.60;;;;;;5092458;28;20443;-83
2022/03/22 01:52:35;;;;;;;9.00;2.90;;;29.00;80.80;;;;;;5092527;28;20876;-85
2022/03/22 01:55:03;;;;;;;5.05;2.40;;;29.00;82.30;;;;;;5092338;28;20395;-88
2022/03/22 01:57:34;;;;;;;4.93;2.40;;;29.30;81.60;;;;;;5092669;28;20376;-88
2022/03/22 02:00:13;;;;;;;4.05;2.38;;;30.10;79.20;;;;;;5091254;28;20392;-86
2022/03/22 02:08:13;;;;;;;7.57;2.42;;;32.40;67.80;;;;;;5094631;28;20461;-88
2022/03/22 02:10:40;;;;;;;4.65;2.30;;;32.80;65.80;;;;;;5092701;28;20442;-91
2022/03/22 02:13:07;;;;;;;4.90;2.35;;;32.80;65.70;;;;;;5092910;28;20419;-87
2022/03/22 02:15:34;;;;;;;6.20;2.58;;;33.00;64.30;;;;;;5093190;28;20828;-85
2022/03/22 02:18:01;;;;;;;7.65;2.70;;;33.20;63.50;;;;;;5092737;28;20412;-84
2022/03/22 02:20:30;;;;;;;4.93;3.03;;;33.70;63.00;;;;;;5092799;28;20380;-87
2022/03/22 02:23:12;;;;;;;5.82;2.50;;;34.70;59.90;;;;;;5092354;28;20384;-86
2022/03/22 02:25:39;;;;;;;4.78;2.30;;;34.50;58.30;;;;;;5093295;28;20380;-85
2022/03/22 02:28:06;;;;;;;6.97;2.70;;;34.00;58.50;;;;;;5093445;28;21226;-86
2022/03/22 02:30:33;;;;;;;7.30;2.70;;;33.30;60.30;;;;;;5092368;28;20431;-85
2022/03/22 02:33:02;;;;;;;7.63;2.55;;;32.60;60.70;;;;;;5091826;28;20381;-86
2022/03/22 02:35:30;;;;;;;6.65;2.60;;;32.50;61.30;;;;;;5092741;28;20373;-86
2022/03/22 02:37:58;;;;;;;8.05;2.80;;;32.70;61.10;;;;;;5096059;28;20383;-87
2022/03/22 02:40:28;;;;;;;7.37;2.80;;;33.00;61.20;;;;;;5095838;28;20368;-85
2022/03/22 02:42:59;;;;;;;6.88;2.53;;;33.70;60.40;;;;;;5093626;28;20377;-86
2022/03/22 02:45:26;;;;;;;5.13;2.53;;;34.40;59.50;;;;;;5092879;28;20379;-87
2022/03/22 02:47:53;;;;;;;18.02;3.97;;;35.40;57.00;;;;;;5093137;28;20396;-84
2022/03/22 02:50:21;;;;;;;25.85;5.55;;;36.30;55.10;;;;;;5093506;28;20760;-84
2022/03/22 02:52:48;;;;;;;8.93;2.88;;;37.30;53.40;;;;;;5091534;28;20381;-82
2022/03/22 02:55:15;;;;;;;6.33;2.60;;;37.50;52.50;;;;;;5093200;28;20387;-82
2022/03/22 02:57:44;;;;;;;6.37;2.50;;;37.70;51.20;;;;;;5092292;28;20383;-90
2022/03/22 03:00:13;;;;;;;8.00;2.83;;;37.70;50.80;;;;;;5093397;28;20372;-87
2022/03/22 03:02:50;;;;;;;9.55;3.30;;;37.20;51.40;;;;;;5094515;28;20463;-82
2022/03/22 03:05:19;;;;;;;9.10;3.37;;;37.90;50.00;;;;;;5058737;28;20384;-85
2022/03/22 03:07:46;;;;;;;5.25;2.60;;;37.80;48.60;;;;;;5092477;28;20371;-80
2022/03/22 03:10:13;;;;;;;4.97;2.42;;;37.10;50.30;;;;;;5091545;28;20415;-81
2022/03/22 03:12:41;;;;;;;6.07;2.50;;;36.60;51.20;;;;;;5072506;28;20374;-84
2022/03/22 03:15:10;;;;;;;4.50;2.30;;;36.50;51.20;;;;;;5072431;28;20877;-84
2022/03/22 03:17:38;;;;;;;4.40;2.33;;;36.80;50.30;;;;;;5089704;28;20385;-83
2022/03/22 03:20:06;;;;;;;5.77;2.30;;;37.30;49.20;;;;;;5092371;28;20422;-87
2022/03/22 03:22:37;;;;;;;5.68;2.40;;;37.90;49.90;;;;;;5091747;28;20376;-86
2022/03/22 03:25:06;;;;;;;6.10;2.60;;;38.80;47.00;;;;;;5091717;28;20372;-91
2022/03/22 03:27:33;;;;;;;7.55;2.50;;;38.80;46.50;;;;;;5081624;28;20987;-86
2022/03/22 03:30:00;;;;;;;7.53;2.33;;;39.10;45.90;;;;;;5090380;28;20397;-85
2022/03/22 03:32:27;;;;;;;4.13;2.43;;;38.90;46.10;;;;;;5090365;28;20457;-81
2022/03/22 03:34:54;;;;;;;5.75;2.40;;;38.70;47.20;;;;;;5090232;28;20379;-82
2022/03/22 03:37:23;;;;;;;6.25;2.60;;;36.40;47.20;;;;;;5090202;28;20365;-85
2022/03/22 03:39:53;;;;;;;5.30;2.60;;;35.20;50.60;;;;;;5089972;28;20380;-88
2022/03/22 03:42:20;;;;;;;5.20;2.47;;;35.00;52.30;;;;;;5091206;28;20376;-80
2022/03/22 03:47:34;;;;;;;4.68;2.50;;;34.70;50.60;;;;;;5094192;28;20426;-84
2022/03/22 03:50:05;;;;;;;4.65;2.30;;;34.50;51.00;;;;;;5096662;28;20397;-85
2022/03/22 03:52:34;;;;;;;6.55;2.50;;;35.30;51.50;;;;;;5106420;28;20388;-85
2022/03/22 03:55:02;;;;;;;4.28;2.40;;;36.10;48.60;;;;;;5106350;28;20402;-86
2022/03/22 03:57:29;;;;;;;3.78;2.40;;;36.50;48.40;;;;;;5091138;28;20373;-85
2022/03/22 03:59:57;;;;;;;7.57;2.47;;;37.10;46.70;;;;;;5090844;28;20385;-86
2022/03/22 04:02:24;;;;;;;5.72;2.30;;;37.70;46.40;;;;;;5088934;28;20376;-84
2022/03/22 04:04:52;;;;;;;4.47;2.40;;;38.00;46.90;;;;;;5073272;28;20390;-86
2022/03/22 04:07:24;;;;;;;4.50;2.50;;;38.60;45.00;;;;;;5075663;28;20442;-84
2022/03/22 04:09:51;;;;;;;4.60;2.30;;;38.70;45.50;;;;;;5077126;28;20435;-84
2022/03/22 04:12:19;;;;;;;5.68;2.35;;;39.00;43.10;;;;;;5041797;28;20936;-85
2022/03/22 04:14:51;;;;;;;5.70;2.50;;;38.10;44.80;;;;;;5074901;28;20381;-84
2022/03/22 04:17:19;;;;;;;4.43;2.47;;;37.60;47.20;;;;;;5075158;28;20406;-85
2022/03/22 04:19:46;;;;;;;4.63;2.47;;;38.30;43.90;;;;;;5057294;28;20373;-86
2022/03/22 04:22:13;;;;;;;5.05;2.58;;;37.80;45.00;;;;;;5075618;28;20374;-84
2022/03/22 04:24:41;;;;;;;4.40;2.38;;;38.20;45.00;;;;;;5081981;28;20412;-86
2022/03/22 04:32:44;;;;;;;3.85;2.63;;;40.20;41.80;;;;;;5094306;28;20376;-87
2022/03/22 04:35:21;;;;;;;4.90;2.40;;;40.10;42.50;;;;;;5092253;28;20404;-86
2022/03/22 04:37:50;;;;;;;4.55;2.60;;;40.10;41.30;;;;;;5094480;28;20441;-87
2022/03/22 04:40:18;;;;;;;4.78;2.85;;;40.10;41.80;;;;;;5094555;28;20411;-84
2022/03/22 04:42:47;;;;;;;5.00;2.45;;;40.00;41.20;;;;;;5095034;28;20966;-85
2022/03/22 04:45:14;;;;;;;4.97;2.40;;;39.40;41.80;;;;;;5094658;28;20743;-85
2022/03/22 04:47:45;;;;;;;6.68;2.80;;;39.00;42.70;;;;;;5094720;28;20402;-86
2022/03/22 04:50:13;;;;;;;5.33;2.87;;;37.90;44.10;;;;;;5091153;28;20746;-84
2022/03/22 04:58:10;;;;;;;4.93;2.67;;;38.80;42.20;;;;;;5074084;28;20432;-83
2022/03/22 05:00:37;;;;;;;5.05;2.72;;;39.30;42.10;;;;;;5072439;28;20386;-81
2022/03/22 05:03:08;;;;;;;4.82;2.72;;;39.90;41.80;;;;;;5072650;28;20386;-84
2022/03/22 05:08:20;;;;;;;4.80;2.67;;;40.20;42.00;;;;;;5075946;28;20391;-86
2022/03/22 05:10:47;;;;;;;4.87;2.90;;;39.10;42.40;;;;;;5094046;28;20384;-84
2022/03/22 05:13:14;;;;;;;6.88;2.85;;;38.10;43.90;;;;;;5076926;28;20416;-86
2022/03/22 05:15:41;;;;;;;5.40;2.63;;;37.50;44.40;;;;;;5073433;28;20947;-85
2022/03/22 05:18:08;;;;;;;4.30;2.60;;;37.00;44.60;;;;;;5088959;28;20392;-83
2022/03/22 05:20:35;;;;;;;4.35;2.55;;;35.50;47.20;;;;;;5078567;28;20804;-85
2022/03/22 05:23:03;;;;;;;6.97;2.80;;;35.50;47.10;;;;;;5087355;28;20384;-83
2022/03/22 05:25:33;;;;;;;4.10;2.70;;;36.00;46.30;;;;;;5075591;28;20385;-85
2022/03/22 05:28:04;;;;;;;6.82;2.70;;;36.20;46.40;;;;;;5068900;28;20385;-85
2022/03/22 05:30:32;;;;;;;6.57;2.70;;;35.50;46.60;;;;;;5093994;28;20425;-85
2022/03/22 05:32:59;;;;;;;5.38;2.80;;;36.10;45.90;;;;;;5090725;28;20386;-83
2022/03/22 05:35:26;;;;;;;4.10;2.60;;;35.40;46.00;;;;;;5074933;28;20386;-89
2022/03/22 05:37:53;;;;;;;5.68;2.90;;;34.20;47.60;;;;;;5073482;28;20373;-85
2022/03/22 05:40:21;;;;;;;6.32;2.72;;;34.20;47.90;;;;;;5073492;28;20370;-83
2022/03/22 05:42:49;;;;;;;4.53;2.70;;;34.10;48.80;;;;;;5072286;28;20385;-87
2022/03/22 05:45:16;;;;;;;6.53;2.70;;;34.40;47.50;;;;;;5070280;28;20742;-79
2022/03/22 05:47:43;;;;;;;5.32;2.53;;;35.10;47.50;;;;;;5065312;28;20479;-82
2022/03/22 05:50:10;;;;;;;4.68;2.70;;;36.00;46.90;;;;;;5092579;28;20415;-84
2022/03/22 05:52:49;;;;;;;4.28;2.30;;;37.20;45.10;;;;;;5092443;28;20377;-83
2022/03/22 05:55:16;;;;;;;7.55;2.83;;;37.80;43.90;;;;;;5092738;28;20744;-82
2022/03/22 05:57:43;;;;;;;6.20;2.75;;;37.80;43.20;;;;;;5092814;28;20372;-85
2022/03/22 06:00:12;;;;;;;4.43;2.80;;;37.60;43.00;;;;;;5092356;28;20729;-89
2022/03/22 06:02:41;;;;;;;6.65;2.70;;;36.50;43.60;;;;;;5092910;28;20383;-83
2022/03/22 06:05:11;;;;;;;4.75;2.70;;;36.00;45.60;;;;;;5094284;28;20391;-88
2022/03/22 06:07:39;;;;;;;5.03;2.50;;;36.20;44.40;;;;;;5095862;28;20373;-88
2022/03/22 06:10:08;;;;;;;6.18;2.72;;;36.20;44.80;;;;;;5095896;28;20802;-85
2022/03/22 06:12:42;;;;;;;4.93;2.70;;;36.50;44.80;;;;;;5092807;28;20380;-80
2022/03/22 06:15:17;;;;;;;4.78;2.60;;;36.90;44.20;;;;;;5093486;28;20376;-91
2022/03/22 06:18:04;;;;;;;5.40;2.70;;;36.70;44.30;;;;;;5093636;28;20967;-86
2022/03/22 06:20:32;;;;;;;5.47;2.72;;;35.70;45.20;;;;;;5092377;28;20442;-81
2022/03/22 06:23:04;;;;;;;9.75;7.85;;;35.50;46.20;;;;;;5092957;28;20417;-84
2022/03/22 06:25:32;;;;;;;6.90;5.53;;;35.60;45.40;;;;;;5095910;28;20380;-82
2022/03/22 06:27:59;;;;;;;5.15;2.67;;;36.10;45.40;;;;;;5093456;28;20380;-90
2022/03/22 06:30:26;;;;;;;4.90;2.60;;;36.10;44.70;;;;;;5093942;28;20426;-79
2022/03/22 06:32:57;;;;;;;3.88;2.60;;;36.40;44.40;;;;;;5092252;28;20388;-88
2022/03/22 06:35:32;;;;;;;9.82;2.85;;;36.40;44.40;;;;;;5092194;28;20962;-79
2022/03/22 06:38:00;;;;;;;4.97;2.57;;;36.20;44.40;;;;;;5091852;28;20507;-82
2022/03/22 06:40:29;;;;;;;5.07;2.67;;;36.30;44.90;;;;;;5091893;28;20380;-87
2022/03/22 06:42:59;;;;;;;4.82;2.65;;;36.40;44.70;;;;;;5092594;28;20365;-83
2022/03/22 06:45:26;;;;;;;4.28;2.60;;;36.10;44.90;;;;;;5090258;28;20384;-78
2022/03/22 06:47:54;;;;;;;7.33;2.90;;;36.20;45.20;;;;;;5091319;28;20739;-81
2022/03/22 06:50:21;;;;;;;3.97;2.72;;;36.10;44.80;;;;;;5091618;28;20460;-78
2022/03/22 06:52:48;;;;;;;7.05;2.80;;;35.80;44.90;;;;;;5092033;28;20373;-86
2022/03/22 06:55:18;;;;;;;5.57;2.90;;;35.10;45.90;;;;;;5090804;28;20494;-81
2022/03/22 06:57:45;;;;;;;4.57;2.92;;;35.00;46.20;;;;;;5091509;28;20383;-83
2022/03/22 07:00:15;;;;;;;4.35;2.75;;;35.00;46.20;;;;;;5074491;28;20411;-81
2022/03/22 07:02:42;;;;;;;5.38;2.60;;;34.90;45.60;;;;;;5089845;28;20479;-84
2022/03/22 07:05:10;;;;;;;4.07;2.70;;;34.60;46.40;;;;;;5091390;28;20784;-91
2022/03/22 07:07:38;;;;;;;4.10;2.75;;;34.10;46.90;;;;;;5090576;28;20392;-78
2022/03/22 07:10:07;;;;;;;5.88;2.88;;;34.00;48.00;;;;;;5090654;28;20399;-83
2022/03/22 07:12:34;;;;;;;5.03;2.85;;;33.80;47.80;;;;;;5090744;28;20740;-78
2022/03/22 07:15:04;;;;;;;5.78;2.80;;;33.70;48.70;;;;;;5090406;28;20464;-82
2022/03/22 07:17:31;;;;;;;6.60;2.90;;;33.60;48.90;;;;;;5090962;28;20455;-89
2022/03/22 07:19:58;;;;;;;6.47;3.10;;;33.30;48.70;;;;;;5090622;28;20389;-77
2022/03/22 07:22:26;;;;;;;4.60;3.13;;;33.00;49.20;;;;;;5094300;28;20379;-90
2022/03/22 07:24:53;;;;;;;7.55;3.20;;;32.80;49.90;;;;;;5110768;28;20858;-77
2022/03/22 07:27:20;;;;;;;6.83;2.47;;;32.50;52.10;;;;;;5110685;28;20398;-83
2022/03/22 07:29:47;;;;;;;6.32;2.80;;;32.30;56.00;;;;;;5111483;28;20872;-77
2022/03/22 07:32:14;;;;;;;5.18;2.55;;;32.00;56.90;;;;;;5109588;28;20370;-81
2022/03/22 07:34:41;;;;;;;4.60;2.70;;;31.60;58.50;;;;;;5090339;28;20384;-78
2022/03/22 07:37:08;;;;;;;4.50;2.40;;;31.20;59.20;;;;;;5090418;28;20379;-77
2022/03/22 07:39:35;;;;;;;6.25;2.63;;;31.00;60.40;;;;;;5090375;28;20368;-76
2022/03/22 07:42:02;;;;;;;6.38;2.50;;;30.90;61.40;;;;;;5090557;28;20380;-88
2022/03/22 07:44:31;;;;;;;5.78;2.60;;;30.70;61.60;;;;;;5090497;28;20430;-76
2022/03/22 07:46:59;;;;;;;4.75;2.60;;;30.30;62.50;;;;;;5088971;28;20462;-79
2022/03/22 07:54:59;;;;;;;6.63;3.40;;;29.20;66.60;;;;;;5090717;28;20395;-79
2022/03/22 07:57:26;;;;;;;7.43;2.80;;;28.90;67.60;;;;;;5090826;28;20380;-79
2022/03/22 07:59:53;;;;;;;6.73;2.93;;;28.70;69.10;;;;;;5094398;28;20369;-76
2022/03/22 08:02:21;;;;;;;10.73;4.32;;;28.40;70.00;;;;;;5091991;28;20384;-80
2022/03/22 08:04:49;;;;;;;9.43;3.75;;;28.20;71.40;;;;;;5090361;28;20545;-84
2022/03/22 08:07:16;;;;;;;7.82;2.97;;;28.00;73.30;;;;;;5094343;28;20422;-77
2022/03/22 08:09:45;;;;;;;7.90;3.28;;;27.80;74.70;;;;;;5092920;28;20411;-83
2022/03/22 08:12:12;;;;;;;7.30;2.92;;;27.70;76.50;;;;;;5092764;28;20376;-83
2022/03/22 08:14:39;;;;;;;7.30;2.90;;;27.50;78.90;;;;;;5090381;28;20403;-79
2022/03/22 08:17:06;;;;;;;6.53;2.78;;;27.40;81.20;;;;;;5089177;28;20861;-80
2022/03/22 08:19:33;;;;;;;7.50;3.00;;;27.30;84.30;;;;;;5078957;28;20781;-80
2022/03/22 08:22:00;;;;;;;7.95;3.05;;;27.20;87.70;;;;;;5081433;28;20398;-78
2022/03/22 08:24:28;;;;;;;6.78;3.08;;;27.10;90.70;;;;;;5090155;28;20408;-77
2022/03/22 08:26:55;;;;;;;8.18;3.10;;;27.00;92.40;;;;;;5090171;28;20372;-87
2022/03/22 08:29:22;;;;;;;8.68;3.33;;;26.90;93.70;;;;;;5090187;28;20400;-80
2022/03/22 08:31:52;;;;;;;7.60;3.05;;;26.80;94.70;;;;;;5090369;28;20391;-79
2022/03/22 08:34:19;;;;;;;8.40;3.30;;;26.70;96.10;;;;;;5089915;28;20438;-87
2022/03/22 08:36:46;;;;;;;7.93;3.70;;;26.60;97.20;;;;;;5088648;28;20448;-77
2022/03/22 08:39:13;;;;;;;7.85;3.90;;;26.60;97.50;;;;;;5090152;28;20376;-86
2022/03/22 08:41:40;;;;;;;14.23;6.90;;;27.60;99.30;;;;;;5089475;28;20395;-77
2022/03/22 08:44:07;;;;;;;10.13;4.75;;;26.40;99.20;;;;;;5089984;28;20397;-79
2022/03/22 08:46:36;;;;;;;9.23;3.60;;;26.40;99.80;;;;;;5089178;28;20441;-77
2022/03/22 08:49:07;;;;;;;11.43;3.88;;;26.30;99.90;;;;;;5087802;28;20499;-79
2022/03/22 08:51:34;;;;;;;8.77;4.00;;;26.30;99.90;;;;;;5091114;28;20431;-89
2022/03/22 08:54:01;;;;;;;8.45;3.92;;;26.30;99.90;;;;;;5093965;28;20708;-78
2022/03/22 08:56:28;;;;;;;7.50;4.13;;;26.20;99.90;;;;;;5093945;28;20399;-78
2022/03/22 08:58:55;;;;;;;9.90;4.30;;;26.10;99.90;;;;;;5093901;28;20423;-84
2022/03/22 09:01:24;;;;;;;8.27;4.50;;;26.00;99.90;;;;;;5093072;28;20443;-80
2022/03/22 09:06:07;;;;;;;9.70;4.45;;;25.90;99.90;;;;;;5092585;28;20537;-76
2022/03/22 09:06:38;;;;;;;9.37;4.20;;;25.80;99.90;;;;;;5093414;28;20464;-81
2022/03/22 09:09:05;;;;;;;7.43;3.95;;;25.70;99.90;;;;;;5092347;28;20407;-81
2022/03/22 09:11:38;;;;;;;10.00;4.00;;;25.70;99.90;;;;;;5091416;28;20384;-79
2022/03/22 09:14:06;;;;;;;11.13;3.95;;;25.70;99.90;;;;;;5078928;28;20389;-78
2022/03/22 09:16:33;;;;;;;8.25;3.90;;;25.70;99.90;;;;;;5092375;28;20411;-89
2022/03/22 09:19:00;;;;;;;7.15;4.10;;;25.60;99.90;;;;;;5091639;28;20392;-77
2022/03/22 09:21:27;;;;;;;9.40;4.00;;;25.50;99.90;;;;;;5092487;28;20403;-77
2022/03/22 09:23:56;;;;;;;8.27;3.95;;;25.50;99.90;;;;;;5092606;28;20398;-88
2022/03/22 09:26:24;;;;;;;6.97;3.60;;;25.40;99.90;;;;;;5093399;28;20376;-89
2022/03/22 09:28:52;;;;;;;7.28;4.28;;;25.30;99.90;;;;;;5090382;28;21186;-89
2022/03/22 09:31:22;;;;;;;7.67;4.07;;;25.30;99.90;;;;;;5092243;28;20510;-86
2022/03/22 09:33:50;;;;;;;7.18;3.65;;;25.30;99.90;;;;;;5092205;28;20717;-81
2022/03/22 09:36:18;;;;;;;7.30;3.80;;;25.30;99.90;;;;;;5092518;28;20430;-78
2022/03/22 09:38:46;;;;;;;6.57;3.83;;;25.20;99.90;;;;;;5093472;28;20377;-85
2022/03/22 09:41:16;;;;;;;8.23;3.72;;;25.10;99.90;;;;;;5094357;28;20843;-87
2022/03/22 09:43:50;;;;;;;8.48;4.07;;;25.10;99.90;;;;;;5094023;28;20698;-77
2022/03/22 09:46:22;;;;;;;7.57;4.20;;;25.10;99.90;;;;;;5093322;28;20510;-83
2022/03/22 09:48:49;;;;;;;7.30;4.00;;;25.10;99.90;;;;;;5092339;28;20400;-77
2022/03/22 09:54:03;;;;;;;10.20;3.70;;;24.90;99.90;;;;;;5093022;28;20383;-84
2022/03/22 09:56:33;;;;;;;8.10;3.55;;;24.90;99.90;;;;;;5090678;28;20471;-90
2022/03/22 09:59:02;;;;;;;6.53;3.47;;;24.80;99.90;;;;;;5091809;28;20857;-87
2022/03/22 10:01:31;;;;;;;8.30;3.70;;;24.80;99.90;;;;;;5091485;28;20384;-83
2022/03/22 10:04:12;;;;;;;7.38;3.97;;;24.70;99.90;;;;;;5090548;28;20376;-77
2022/03/22 10:06:50;;;;;;;6.30;3.20;;;24.70;99.90;;;;;;5091949;28;20399;-78
2022/03/22 10:09:33;;;;;;;7.32;3.65;;;24.60;99.90;;;;;;5072061;28;20470;-85
2022/03/22 10:12:00;;;;;;;6.22;3.50;;;24.50;99.90;;;;;;5086533;28;20788;-86
2022/03/22 10:14:38;;;;;;;8.35;3.50;;;24.60;99.90;;;;;;5092007;28;20388;-84
2022/03/22 10:17:30;;;;;;;6.88;3.40;;;24.50;99.90;;;;;;5091354;28;20395;-77
2022/03/22 10:19:57;;;;;;;11.57;4.13;;;24.50;99.90;;;;;;5091003;28;20434;-85
2022/03/22 10:22:26;;;;;;;10.05;4.88;;;24.50;99.90;;;;;;5089482;28;20393;-79
2022/03/22 10:24:58;;;;;;;8.75;4.15;;;24.50;99.90;;;;;;5090720;28;20395;-89
2022/03/22 10:27:27;;;;;;;9.18;3.70;;;24.50;99.90;;;;;;5092417;28;20381;-80
2022/03/22 10:29:58;;;;;;;7.35;3.90;;;24.40;99.90;;;;;;5091900;28;20407;-86
2022/03/22 10:32:39;;;;;;;6.72;3.70;;;24.30;99.90;;;;;;5091782;28;20421;-77
2022/03/22 10:35:22;;;;;;;9.23;3.92;;;24.20;99.90;;;;;;5091924;28;20389;-87
2022/03/22 10:38:01;;;;;;;6.90;3.72;;;24.20;99.90;;;;;;5091629;28;20709;-88
2022/03/22 10:40:32;;;;;;;9.77;3.50;;;24.10;99.90;;;;;;5090797;28;20376;-89
2022/03/22 10:43:01;;;;;;;7.70;3.50;;;24.10;99.90;;;;;;5090533;28;20794;-88
2022/03/22 10:45:30;;;;;;;7.20;3.50;;;24.00;99.90;;;;;;5091136;28;20389;-83
2022/03/22 10:47:58;;;;;;;8.30;3.83;;;24.00;99.90;;;;;;5089542;28;21208;-82
2022/03/22 10:50:25;;;;;;;7.82;3.78;;;23.90;99.90;;;;;;5090165;28;20910;-88
2022/03/22 10:52:59;;;;;;;6.95;3.60;;;23.90;99.90;;;;;;5091089;28;20391;-86
2022/03/22 10:55:27;;;;;;;6.47;3.75;;;23.80;99.90;;;;;;5089923;28;20388;-84
2022/03/22 10:57:57;;;;;;;7.38;3.80;;;23.80;99.90;;;;;;5093224;28;20376;-90
2022/03/22 11:00:25;;;;;;;6.25;3.60;;;23.80;99.90;;;;;;5089170;28;20454;-85
2022/03/22 11:02:55;;;;;;;8.48;4.00;;;23.80;99.90;;;;;;5081240;28;20423;-86
2022/03/22 11:05:24;;;;;;;7.30;3.60;;;23.80;99.90;;;;;;5091316;28;21004;-79
2022/03/22 11:07:52;;;;;;;11.07;4.00;;;23.70;99.90;;;;;;5090421;28;20380;-85
2022/03/22 11:10:29;;;;;;;9.55;3.80;;;23.70;99.90;;;;;;5090995;28;20465;-89
2022/03/22 11:13:05;;;;;;;9.00;3.90;;;23.60;99.90;;;;;;5090838;28;20433;-86
2022/03/22 11:15:40;;;;;;;6.87;3.60;;;23.60;99.90;;;;;;5089923;28;20384;-83
2022/03/22 11:18:07;;;;;;;6.60;3.70;;;23.60;99.90;;;;;;5090846;28;20921;-89
2022/03/22 11:20:35;;;;;;;7.75;3.80;;;23.60;99.90;;;;;;5090972;28;20388;-87
2022/03/22 11:23:02;;;;;;;8.70;3.55;;;23.60;99.90;;;;;;5091218;28;20499;-81
2022/03/22 11:25:35;;;;;;;11.40;3.95;;;23.50;99.90;;;;;;5090992;28;20384;-83
2022/03/22 11:28:13;;;;;;;10.10;3.63;;;23.50;99.90;;;;;;5090843;28;20371;-83
2022/03/22 11:30:41;;;;;;;10.15;3.80;;;23.40;99.90;;;;;;5091006;28;20376;-88
2022/03/22 11:36:21;;;;;;;9.93;3.72;;;23.40;99.90;;;;;;5029655;28;20389;-87
2022/03/22 11:38:49;;;;;;;8.45;3.70;;;23.30;99.90;;;;;;5043058;28;20909;-82
2022/03/22 11:44:22;;;;;;;7.88;3.50;;;23.20;99.90;;;;;;5046842;28;20407;-84
2022/03/22 11:47:02;;;;;;;8.45;3.53;;;23.20;99.90;;;;;;5047372;28;20960;-78
2022/03/22 11:49:29;;;;;;;8.77;3.50;;;23.10;99.90;;;;;;5047674;28;20796;-90
2022/03/22 11:52:11;;;;;;;8.30;3.72;;;23.00;99.90;;;;;;5048163;28;20395;-85
2022/03/22 11:54:39;;;;;;;8.00;3.78;;;23.00;99.90;;;;;;5040284;28;20391;-82
2022/03/22 11:57:08;;;;;;;7.00;3.75;;;22.90;99.90;;;;;;5046984;28;20454;-79
2022/03/22 11:59:47;;;;;;;8.52;3.90;;;22.90;99.90;;;;;;5046917;28;20484;-87
2022/03/22 12:02:18;;;;;;;6.10;3.70;;;22.90;99.90;;;;;;5047728;28;20394;-87
2022/03/22 12:04:56;;;;;;;8.57;3.63;;;22.90;99.90;;;;;;5048026;28;20879;-81
2022/03/22 12:07:30;;;;;;;7.00;3.67;;;22.90;99.90;;;;;;5048080;28;20414;-87
2022/03/22 12:10:10;;;;;;;6.67;3.60;;;22.90;99.90;;;;;;5064749;28;20953;-89
2022/03/22 12:12:38;;;;;;;7.80;3.42;;;22.80;99.90;;;;;;5089302;28;20380;-84
2022/03/22 12:15:08;;;;;;;7.80;3.63;;;22.80;99.90;;;;;;5089396;28;20674;-88
2022/03/22 12:17:37;;;;;;;8.23;3.78;;;22.80;99.90;;;;;;5089191;28;20486;-90
2022/03/22 12:20:11;;;;;;;8.57;3.58;;;22.80;99.90;;;;;;5090059;28;20506;-89
2022/03/22 12:22:45;;;;;;;8.02;3.40;;;22.70;99.90;;;;;;5090473;28;20463;-86
2022/03/22 12:25:15;;;;;;;8.00;3.63;;;22.70;99.90;;;;;;5090417;28;20434;-88
2022/03/22 12:27:56;;;;;;;7.28;3.72;;;22.70;99.90;;;;;;5073934;28;20382;-86
2022/03/22 12:30:28;;;;;;;7.90;3.80;;;22.70;99.90;;;;;;5083341;28;20400;-90
2022/03/22 12:33:11;;;;;;;9.32;3.58;;;22.60;99.90;;;;;;5094330;28;20376;-80
2022/03/22 12:35:40;;;;;;;5.90;3.40;;;22.60;99.90;;;;;;5094602;28;20372;-80
2022/03/22 12:38:07;;;;;;;6.78;3.70;;;22.50;99.90;;;;;;5093858;28;20365;-83
2022/03/22 12:40:35;;;;;;;7.25;3.63;;;22.50;99.90;;;;;;5094015;28;20441;-81
2022/03/22 12:43:04;;;;;;;9.38;3.65;;;22.40;99.90;;;;;;5093567;28;20388;-84
2022/03/22 12:45:32;;;;;;;8.15;3.50;;;22.40;99.90;;;;;;5094344;28;21894;-79
2022/03/22 12:48:00;;;;;;;8.98;4.05;;;22.40;99.90;;;;;;5086105;28;20907;-84
2022/03/22 12:50:28;;;;;;;9.10;3.60;;;22.30;99.90;;;;;;5073781;28;20386;-85
2022/03/22 12:52:55;;;;;;;6.93;3.33;;;22.30;99.90;;;;;;5072135;28;20406;-81
2022/03/22 12:55:27;;;;;;;7.03;3.47;;;22.30;99.90;;;;;;5063296;28;20385;-82
2022/03/22 12:57:58;;;;;;;6.78;3.50;;;22.30;99.90;;;;;;5073133;28;21001;-86
2022/03/22 13:00:40;;;;;;;6.30;3.47;;;22.20;99.90;;;;;;5076034;28;20382;-77
2022/03/22 13:03:11;;;;;;;7.85;3.45;;;22.20;99.90;;;;;;5089369;28;20413;-82
2022/03/22 13:05:47;;;;;;;7.75;3.40;;;22.20;99.90;;;;;;5073509;28;20374;-80
2022/03/22 13:08:16;;;;;;;7.30;3.50;;;22.20;99.90;;;;;;5073460;28;20385;-82
2022/03/22 13:15:01;;;;;;;9.25;3.60;;;22.10;99.90;;;;;;5053605;28;20463;-85
2022/03/22 13:16:29;;;;;;;8.57;3.65;;;22.10;99.90;;;;;;5067401;28;20477;-82
2022/03/22 13:19:00;;;;;;;7.68;3.42;;;22.10;99.90;;;;;;5073817;28;20374;-81
2022/03/22 13:21:31;;;;;;;7.57;3.40;;;22.10;99.90;;;;;;5075206;28;20366;-78
2022/03/22 13:24:17;;;;;;;8.45;3.50;;;22.00;99.90;;;;;;5079144;28;20883;-84
2022/03/22 13:27:00;;;;;;;7.70;3.60;;;22.00;99.90;;;;;;5063999;28;20421;-83
2022/03/22 13:29:39;;;;;;;6.57;3.70;;;22.00;99.90;;;;;;5072800;28;20433;-82
2022/03/22 13:32:27;;;;;;;7.57;3.80;;;22.00;99.90;;;;;;5060320;28;20380;-78
2022/03/22 13:35:04;;;;;;;6.82;3.38;;;22.00;99.90;;;;;;5053179;28;20459;-80
2022/03/22 13:37:42;;;;;;;7.80;3.55;;;21.90;99.90;;;;;;5064563;28;20477;-81